sensor_id;sensor_type;location;lat;lon;timestamp;pressure;altitude;pressure_sealevel;temperature;humidity
71151;BME280;59071;42.138;24.768;2022-09-29T00:00:11;98681.94;;;19.97;54.43
71151;BME280;59071;42.138;24.768;2022-09-29T00:02:37;98676.72;;;20.05;53.96
71151;BME280;59071;42.138;24.768;2022-09-29T00:05:03;98691.44;;;20.13;53.46
71151;BME280;59071;42.138;24.768;2022-09-29T00:07:29;98690.50;;;20.04;54.02
71151;BME280;59071;42.138;24.768;2022-09-29T00:09:56;98679.63;;;20.09;54.08
71151;BME280;59071;42.138;24.768;2022-09-29T00:12:21;98684.78;;;19.86;54.25
71151;BME280;59071;42.138;24.768;2022-09-29T00:14:47;98677.13;;;19.75;54.57
71151;BME280;59071;42.138;24.768;2022-09-29T00:17:12;98681.25;;;19.67;55.17
71151;BME280;59071;42.138;24.768;2022-09-29T00:19:38;98675.78;;;19.72;55.28
71151;BME280;59071;42.138;24.768;2022-09-29T00:22:04;98666.63;;;19.73;55.41
71151;BME280;59071;42.138;24.768;2022-09-29T00:24:29;98677.03;;;19.80;55.04
71151;BME280;59071;42.138;24.768;2022-09-29T00:26:55;98673.72;;;19.88;54.74
71151;BME280;59071;42.138;24.768;2022-09-29T00:29:21;98666.13;;;19.90;54.80
71151;BME280;59071;42.138;24.768;2022-09-29T00:31:46;98666.97;;;19.85;54.83
71151;BME280;59071;42.138;24.768;2022-09-29T00:34:11;98663.13;;;19.72;55.15
71151;BME280;59071;42.138;24.768;2022-09-29T00:36:37;98654.81;;;19.64;54.59
71151;BME280;59071;42.138;24.768;2022-09-29T00:39:02;98650.16;;;19.69;54.40
71151;BME280;59071;42.138;24.768;2022-09-29T00:41:31;98655.81;;;19.73;55.04
71151;BME280;59071;42.138;24.768;2022-09-29T00:49:26;98661.84;;;19.65;54.32
71151;BME280;59071;42.138;24.768;2022-09-29T00:52:00;98653.81;;;19.60;54.08
71151;BME280;59071;42.138;24.768;2022-09-29T00:54:28;98661.63;;;19.61;53.92
71151;BME280;59071;42.138;24.768;2022-09-29T00:56:58;98661.66;;;19.56;53.62
71151;BME280;59071;42.138;24.768;2022-09-29T00:59:31;98666.31;;;19.50;53.83
71151;BME280;59071;42.138;24.768;2022-09-29T01:02:02;98663.25;;;19.57;53.04
71151;BME280;59071;42.138;24.768;2022-09-29T01:04:29;98652.09;;;19.45;53.79
71151;BME280;59071;42.138;24.768;2022-09-29T01:06:56;98655.88;;;19.44;53.94
71151;BME280;59071;42.138;24.768;2022-09-29T01:09:42;98660.03;;;19.55;54.17
71151;BME280;59071;42.138;24.768;2022-09-29T01:12:07;98660.16;;;19.69;53.47
71151;BME280;59071;42.138;24.768;2022-09-29T01:14:34;98671.06;;;19.59;54.00
71151;BME280;59071;42.138;24.768;2022-09-29T01:17:01;98668.91;;;19.37;54.62
71151;BME280;59071;42.138;24.768;2022-09-29T01:25:35;98676.72;;;19.38;55.26
71151;BME280;59071;42.138;24.768;2022-09-29T01:39:04;98697.00;;;19.06;55.58
71151;BME280;59071;42.138;24.768;2022-09-29T01:42:08;98706.09;;;19.16;55.45
71151;BME280;59071;42.138;24.768;2022-09-29T01:47:28;98720.16;;;18.73;56.30
71151;BME280;59071;42.138;24.768;2022-09-29T01:50:07;98716.31;;;18.89;56.27
71151;BME280;59071;42.138;24.768;2022-09-29T01:52:41;98729.91;;;19.03;55.46
71151;BME280;59071;42.138;24.768;2022-09-29T01:55:16;98729.09;;;19.08;55.20
71151;BME280;59071;42.138;24.768;2022-09-29T01:57:46;98745.78;;;19.10;55.55
71151;BME280;59071;42.138;24.768;2022-09-29T02:00:16;98746.28;;;19.12;55.50
71151;BME280;59071;42.138;24.768;2022-09-29T02:02:53;98735.28;;;18.69;56.94
71151;BME280;59071;42.138;24.768;2022-09-29T02:05:43;98733.88;;;18.82;56.81
71151;BME280;59071;42.138;24.768;2022-09-29T02:11:04;98744.66;;;18.82;57.08
71151;BME280;59071;42.138;24.768;2022-09-29T02:17:03;98708.94;;;18.66;57.23
71151;BME280;59071;42.138;24.768;2022-09-29T02:19:33;98733.03;;;18.86;57.43
71151;BME280;59071;42.138;24.768;2022-09-29T02:22:00;98722.91;;;18.28;59.13
71151;BME280;59071;42.138;24.768;2022-09-29T02:24:25;98727.97;;;18.40;58.79
71151;BME280;59071;42.138;24.768;2022-09-29T02:26:51;98732.44;;;18.55;58.45
71151;BME280;59071;42.138;24.768;2022-09-29T02:29:17;98720.72;;;18.35;58.80
71151;BME280;59071;42.138;24.768;2022-09-29T02:31:44;98733.88;;;18.37;59.35
71151;BME280;59071;42.138;24.768;2022-09-29T02:34:13;98729.94;;;18.24;59.84
71151;BME280;59071;42.138;24.768;2022-09-29T02:47:25;98739.25;;;18.42;59.51
71151;BME280;59071;42.138;24.768;2022-09-29T02:52:57;98748.53;;;18.65;58.55
71151;BME280;59071;42.138;24.768;2022-09-29T02:59:07;98740.41;;;18.70;58.50
71151;BME280;59071;42.138;24.768;2022-09-29T03:01:46;98745.78;;;18.75;58.09
71151;BME280;59071;42.138;24.768;2022-09-29T03:04:12;98753.34;;;18.68;58.04
71151;BME280;59071;42.138;24.768;2022-09-29T03:06:38;98755.44;;;18.82;57.76
71151;BME280;59071;42.138;24.768;2022-09-29T03:09:03;98754.66;;;18.81;57.73
71151;BME280;59071;42.138;24.768;2022-09-29T03:11:28;98744.84;;;18.90;57.45
71151;BME280;59071;42.138;24.768;2022-09-29T03:13:54;98749.44;;;18.90;57.31
71151;BME280;59071;42.138;24.768;2022-09-29T03:16:19;98746.44;;;18.97;57.43
71151;BME280;59071;42.138;24.768;2022-09-29T03:18:45;98748.22;;;18.72;58.75
71151;BME280;59071;42.138;24.768;2022-09-29T03:21:10;98748.22;;;18.72;57.97
71151;BME280;59071;42.138;24.768;2022-09-29T03:23:36;98750.91;;;18.72;58.42
71151;BME280;59071;42.138;24.768;2022-09-29T03:26:01;98733.22;;;18.61;57.93
71151;BME280;59071;42.138;24.768;2022-09-29T03:28:27;98749.38;;;18.61;58.37
71151;BME280;59071;42.138;24.768;2022-09-29T03:30:52;98740.34;;;18.41;59.21
71151;BME280;59071;42.138;24.768;2022-09-29T03:33:20;98744.72;;;18.32;59.07
71151;BME280;59071;42.138;24.768;2022-09-29T03:35:45;98741.16;;;18.36;59.27
71151;BME280;59071;42.138;24.768;2022-09-29T03:38:10;98744.00;;;18.61;58.72
71151;BME280;59071;42.138;24.768;2022-09-29T03:40:36;98738.56;;;18.66;58.36
71151;BME280;59071;42.138;24.768;2022-09-29T03:43:01;98744.41;;;18.73;57.91
71151;BME280;59071;42.138;24.768;2022-09-29T03:45:27;98737.75;;;18.65;58.44
71151;BME280;59071;42.138;24.768;2022-09-29T03:47:52;98737.25;;;18.58;58.44
71151;BME280;59071;42.138;24.768;2022-09-29T03:50:18;98746.66;;;18.66;57.97
71151;BME280;59071;42.138;24.768;2022-09-29T03:52:43;98750.97;;;18.62;57.97
71151;BME280;59071;42.138;24.768;2022-09-29T03:55:08;98756.09;;;18.63;57.97
71151;BME280;59071;42.138;24.768;2022-09-29T03:57:34;98755.16;;;18.39;58.59
71151;BME280;59071;42.138;24.768;2022-09-29T03:59:59;98759.47;;;18.40;58.59
71151;BME280;59071;42.138;24.768;2022-09-29T04:02:25;98761.31;;;18.44;58.83
71151;BME280;59071;42.138;24.768;2022-09-29T04:04:50;98757.75;;;18.54;67.31
71151;BME280;59071;42.138;24.768;2022-09-29T04:07:16;98756.50;;;19.15;62.30
71151;BME280;59071;42.138;24.768;2022-09-29T04:09:41;98754.03;;;19.19;57.40
71151;BME280;59071;42.138;24.768;2022-09-29T04:12:07;98764.16;;;19.03;57.42
71151;BME280;59071;42.138;24.768;2022-09-29T04:14:32;98778.81;;;18.91;57.68
71151;BME280;59071;42.138;24.768;2022-09-29T04:16:58;98779.09;;;18.90;57.34
71151;BME280;59071;42.138;24.768;2022-09-29T04:19:23;98782.22;;;18.68;58.22
71151;BME280;59071;42.138;24.768;2022-09-29T04:21:49;98780.09;;;18.60;58.45
71151;BME280;59071;42.138;24.768;2022-09-29T04:24:14;98788.44;;;18.58;58.49
71151;BME280;59071;42.138;24.768;2022-09-29T04:26:40;98785.28;;;18.51;58.80
71151;BME280;59071;42.138;24.768;2022-09-29T04:29:06;98791.22;;;18.48;58.84
71151;BME280;59071;42.138;24.768;2022-09-29T04:31:31;98789.88;;;18.45;58.61
71151;BME280;59071;42.138;24.768;2022-09-29T04:33:56;98799.53;;;18.51;58.93
71151;BME280;59071;42.138;24.768;2022-09-29T04:36:22;98804.41;;;18.49;58.86
71151;BME280;59071;42.138;24.768;2022-09-29T04:38:48;98806.31;;;18.49;58.64
71151;BME280;59071;42.138;24.768;2022-09-29T04:41:16;98819.47;;;18.50;59.03
71151;BME280;59071;42.138;24.768;2022-09-29T04:43:41;98817.28;;;18.58;58.58
71151;BME280;59071;42.138;24.768;2022-09-29T04:46:07;98824.47;;;18.72;58.66
71151;BME280;59071;42.138;24.768;2022-09-29T04:48:33;98844.28;;;18.97;58.07
71151;BME280;59071;42.138;24.768;2022-09-29T04:51:00;98835.53;;;18.71;58.26
71151;BME280;59071;42.138;24.768;2022-09-29T04:53:26;98840.84;;;18.31;59.10
71151;BME280;59071;42.138;24.768;2022-09-29T04:55:51;98834.72;;;18.21;59.85
71151;BME280;59071;42.138;24.768;2022-09-29T04:58:17;98828.09;;;18.52;59.08
71151;BME280;59071;42.138;24.768;2022-09-29T05:00:42;98822.63;;;19.07;57.68
71151;BME280;59071;42.138;24.768;2022-09-29T05:03:08;98824.84;;;19.64;55.57
71151;BME280;59071;42.138;24.768;2022-09-29T05:05:33;98818.66;;;19.87;54.53
71151;BME280;59071;42.138;24.768;2022-09-29T05:07:59;98825.56;;;19.99;53.93
71151;BME280;59071;42.138;24.768;2022-09-29T05:10:28;98829.28;;;20.27;53.01
71151;BME280;59071;42.138;24.768;2022-09-29T05:12:53;98830.19;;;20.41;52.51
71151;BME280;59071;42.138;24.768;2022-09-29T05:15:19;98833.66;;;20.85;51.20
71151;BME280;59071;42.138;24.768;2022-09-29T05:17:44;98832.63;;;21.33;50.58
71151;BME280;59071;42.138;24.768;2022-09-29T05:20:10;98837.06;;;21.75;49.33
71151;BME280;59071;42.138;24.768;2022-09-29T05:22:37;98837.19;;;22.25;48.56
71151;BME280;59071;42.138;24.768;2022-09-29T05:25:02;98831.97;;;22.01;48.50
71151;BME280;59071;42.138;24.768;2022-09-29T05:27:28;98838.66;;;22.18;47.59
71151;BME280;59071;42.138;24.768;2022-09-29T05:29:53;98848.09;;;22.48;47.29
71151;BME280;59071;42.138;24.768;2022-09-29T05:32:18;98836.41;;;22.61;47.41
71151;BME280;59071;42.138;24.768;2022-09-29T05:34:44;98831.69;;;23.03;45.97
71151;BME280;59071;42.138;24.768;2022-09-29T05:37:10;98834.09;;;23.28;45.30
71151;BME280;59071;42.138;24.768;2022-09-29T05:39:36;98832.72;;;24.02;44.00
71151;BME280;59071;42.138;24.768;2022-09-29T05:42:05;98826.00;;;24.65;42.67
71151;BME280;59071;42.138;24.768;2022-09-29T05:44:34;98825.69;;;25.10;41.31
71151;BME280;59071;42.138;24.768;2022-09-29T05:46:59;98823.59;;;25.33;40.67
71151;BME280;59071;42.138;24.768;2022-09-29T05:49:25;98827.03;;;25.60;40.37
71151;BME280;59071;42.138;24.768;2022-09-29T05:51:51;98836.22;;;25.94;39.78
71151;BME280;59071;42.138;24.768;2022-09-29T05:54:16;98828.41;;;26.22;39.23
71151;BME280;59071;42.138;24.768;2022-09-29T05:56:42;98828.25;;;26.48;38.50
71151;BME280;59071;42.138;24.768;2022-09-29T05:59:08;98818.03;;;26.58;38.16
71151;BME280;59071;42.138;24.768;2022-09-29T06:01:34;98822.19;;;27.06;37.33
71151;BME280;59071;42.138;24.768;2022-09-29T06:03:59;98821.66;;;27.58;36.73
71151;BME280;59071;42.138;24.768;2022-09-29T06:06:27;98822.16;;;27.85;35.97
71151;BME280;59071;42.138;24.768;2022-09-29T06:08:54;98816.59;;;28.18;35.18
71151;BME280;59071;42.138;24.768;2022-09-29T06:11:25;98806.63;;;28.51;33.87
71151;BME280;59071;42.138;24.768;2022-09-29T06:13:52;98806.28;;;28.93;33.81
71151;BME280;59071;42.138;24.768;2022-09-29T06:16:22;98804.47;;;29.41;33.49
71151;BME280;59071;42.138;24.768;2022-09-29T06:18:48;98801.88;;;29.76;32.55
71151;BME280;59071;42.138;24.768;2022-09-29T06:21:17;98805.75;;;29.91;32.09
71151;BME280;59071;42.138;24.768;2022-09-29T06:23:43;98797.81;;;30.21;31.32
71151;BME280;59071;42.138;24.768;2022-09-29T06:26:11;98801.88;;;30.28;31.08
71151;BME280;59071;42.138;24.768;2022-09-29T06:28:37;98796.16;;;30.72;30.82
71151;BME280;59071;42.138;24.768;2022-09-29T06:31:05;98797.25;;;30.87;29.78
71151;BME280;59071;42.138;24.768;2022-09-29T06:33:32;98799.69;;;30.72;30.49
71151;BME280;59071;42.138;24.768;2022-09-29T06:35:58;98808.97;;;31.03;30.60
71151;BME280;59071;42.138;24.768;2022-09-29T06:38:43;98806.63;;;31.25;29.67
71151;BME280;59071;42.138;24.768;2022-09-29T06:41:09;98811.72;;;31.03;30.06
71151;BME280;59071;42.138;24.768;2022-09-29T06:43:34;98810.94;;;31.26;29.92
71151;BME280;59071;42.138;24.768;2022-09-29T06:46:00;98805.56;;;31.52;28.94
71151;BME280;59071;42.138;24.768;2022-09-29T06:48:25;98811.88;;;31.76;28.64
71151;BME280;59071;42.138;24.768;2022-09-29T06:50:54;98808.84;;;31.85;28.89
71151;BME280;59071;42.138;24.768;2022-09-29T06:53:20;98811.97;;;31.83;28.70
71151;BME280;59071;42.138;24.768;2022-09-29T06:55:52;98812.88;;;31.91;28.54
71151;BME280;59071;42.138;24.768;2022-09-29T06:58:18;98802.06;;;31.32;29.59
71151;BME280;59071;42.138;24.768;2022-09-29T07:00:43;98804.69;;;31.71;29.21
71151;BME280;59071;42.138;24.768;2022-09-29T07:03:08;98801.84;;;31.87;28.87
71151;BME280;59071;42.138;24.768;2022-09-29T07:05:34;98810.59;;;31.96;28.89
71151;BME280;59071;42.138;24.768;2022-09-29T07:08:00;98821.03;;;31.84;29.30
71151;BME280;59071;42.138;24.768;2022-09-29T07:10:25;98827.06;;;31.70;29.71
71151;BME280;59071;42.138;24.768;2022-09-29T07:12:50;98828.13;;;32.38;28.85
71151;BME280;59071;42.138;24.768;2022-09-29T07:15:16;98832.91;;;32.68;28.33
71151;BME280;59071;42.138;24.768;2022-09-29T07:17:42;98832.19;;;32.48;28.42
71151;BME280;59071;42.138;24.768;2022-09-29T07:20:07;98837.47;;;32.30;27.78
71151;BME280;59071;42.138;24.768;2022-09-29T07:22:33;98829.88;;;32.23;27.95
71151;BME280;59071;42.138;24.768;2022-09-29T07:24:58;98830.19;;;31.91;28.77
71151;BME280;59071;42.138;24.768;2022-09-29T07:27:23;98829.84;;;31.96;28.86
71151;BME280;59071;42.138;24.768;2022-09-29T07:29:50;98832.94;;;32.71;27.90
71151;BME280;59071;42.138;24.768;2022-09-29T07:32:16;98830.13;;;32.98;27.50
71151;BME280;59071;42.138;24.768;2022-09-29T07:34:42;98831.03;;;32.76;27.38
71151;BME280;59071;42.138;24.768;2022-09-29T07:37:07;98825.06;;;33.38;26.66
71151;BME280;59071;42.138;24.768;2022-09-29T07:39:33;98823.03;;;33.35;26.69
71151;BME280;59071;42.138;24.768;2022-09-29T07:41:58;98813.03;;;33.60;26.20
71151;BME280;59071;42.138;24.768;2022-09-29T07:44:24;98821.91;;;33.39;26.20
71151;BME280;59071;42.138;24.768;2022-09-29T07:46:49;98825.00;;;32.40;27.85
71151;BME280;59071;42.138;24.768;2022-09-29T07:49:14;98826.41;;;32.83;27.07
71151;BME280;59071;42.138;24.768;2022-09-29T07:51:40;98826.47;;;33.21;27.04
71151;BME280;59071;42.138;24.768;2022-09-29T07:54:06;98833.59;;;32.95;27.05
71151;BME280;59071;42.138;24.768;2022-09-29T07:56:32;98830.47;;;32.36;27.19
71151;BME280;59071;42.138;24.768;2022-09-29T07:58:57;98844.59;;;31.19;29.01
71151;BME280;59071;42.138;24.768;2022-09-29T08:01:23;98840.81;;;31.70;28.27
71151;BME280;59071;42.138;24.768;2022-09-29T08:03:53;98843.09;;;31.87;28.15
71151;BME280;59071;42.138;24.768;2022-09-29T08:06:19;98851.16;;;31.14;29.48
71151;BME280;59071;42.138;24.768;2022-09-29T08:08:46;98847.31;;;29.93;31.51
71151;BME280;59071;42.138;24.768;2022-09-29T08:11:14;98847.03;;;30.14;30.74
71151;BME280;59071;42.138;24.768;2022-09-29T08:13:40;98850.66;;;30.34;30.48
71151;BME280;59071;42.138;24.768;2022-09-29T08:16:08;98850.13;;;30.84;29.72
71151;BME280;59071;42.138;24.768;2022-09-29T08:18:35;98856.09;;;31.25;29.84
71151;BME280;59071;42.138;24.768;2022-09-29T08:21:01;98852.72;;;31.77;29.42
71151;BME280;59071;42.138;24.768;2022-09-29T08:23:26;98860.16;;;32.50;27.89
71151;BME280;59071;42.138;24.768;2022-09-29T08:26:04;98861.63;;;32.70;27.17
71151;BME280;59071;42.138;24.768;2022-09-29T08:28:30;98866.88;;;32.79;27.63
71151;BME280;59071;42.138;24.768;2022-09-29T08:30:56;98866.50;;;32.81;27.72
71151;BME280;59071;42.138;24.768;2022-09-29T08:33:25;98864.19;;;32.56;27.51
71151;BME280;59071;42.138;24.768;2022-09-29T08:35:55;98859.59;;;32.94;27.41
71151;BME280;59071;42.138;24.768;2022-09-29T08:38:21;98859.28;;;33.37;26.89
71151;BME280;59071;42.138;24.768;2022-09-29T08:40:46;98868.75;;;32.71;27.32
71151;BME280;59071;42.138;24.768;2022-09-29T08:43:21;98847.72;;;32.90;27.35
71151;BME280;59071;42.138;24.768;2022-09-29T08:46:10;98855.41;;;32.47;27.99
71151;BME280;59071;42.138;24.768;2022-09-29T08:48:42;98847.34;;;32.34;28.76
71151;BME280;59071;42.138;24.768;2022-09-29T08:51:24;98848.56;;;31.64;29.76
71151;BME280;59071;42.138;24.768;2022-09-29T08:53:53;98848.81;;;32.02;29.33
71151;BME280;59071;42.138;24.768;2022-09-29T08:56:21;98853.47;;;32.78;27.85
71151;BME280;59071;42.138;24.768;2022-09-29T08:58:46;98848.69;;;33.39;27.58
71151;BME280;59071;42.138;24.768;2022-09-29T09:06:27;98847.66;;;32.56;27.79
71151;BME280;59071;42.138;24.768;2022-09-29T09:17:03;98843.22;;;33.42;26.98
71151;BME280;59071;42.138;24.768;2022-09-29T09:22:23;98845.19;;;33.42;26.34
71151;BME280;59071;42.138;24.768;2022-09-29T09:25:37;98839.19;;;33.33;26.16
71151;BME280;59071;42.138;24.768;2022-09-29T09:27:48;98836.59;;;33.50;26.29
71151;BME280;59071;42.138;24.768;2022-09-29T09:30:18;98831.63;;;33.63;25.89
71151;BME280;59071;42.138;24.768;2022-09-29T09:32:53;98827.41;;;33.80;26.07
71151;BME280;59071;42.138;24.768;2022-09-29T09:37:53;98824.28;;;33.41;26.38
71151;BME280;59071;42.138;24.768;2022-09-29T09:40:37;98807.06;;;33.51;26.11
71151;BME280;59071;42.138;24.768;2022-09-29T09:43:14;98807.13;;;33.62;26.38
71151;BME280;59071;42.138;24.768;2022-09-29T09:46:11;98806.28;;;33.54;26.66
71151;BME280;59071;42.138;24.768;2022-09-29T09:48:41;98810.25;;;32.82;27.31
71151;BME280;59071;42.138;24.768;2022-09-29T09:53:51;98805.22;;;32.30;27.75
71151;BME280;59071;42.138;24.768;2022-09-29T10:02:17;98811.41;;;32.50;27.89
71151;BME280;59071;42.138;24.768;2022-09-29T10:04:44;98809.97;;;33.24;27.02
71151;BME280;59071;42.138;24.768;2022-09-29T10:07:11;98809.59;;;33.29;27.27
71151;BME280;59071;42.138;24.768;2022-09-29T10:09:36;98811.03;;;33.57;26.91
71151;BME280;59071;42.138;24.768;2022-09-29T10:12:01;98820.75;;;33.85;26.20
71151;BME280;59071;42.138;24.768;2022-09-29T10:14:27;98820.50;;;33.60;26.79
71151;BME280;59071;42.138;24.768;2022-09-29T10:16:56;98818.66;;;33.71;26.18
71151;BME280;59071;42.138;24.768;2022-09-29T10:20:05;98819.50;;;33.75;26.44
71151;BME280;59071;42.138;24.768;2022-09-29T10:22:31;98823.94;;;33.91;26.52
71151;BME280;59071;42.138;24.768;2022-09-29T10:25:16;98820.00;;;33.88;26.45
71151;BME280;59071;42.138;24.768;2022-09-29T10:27:45;98815.00;;;34.08;26.37
71151;BME280;59071;42.138;24.768;2022-09-29T10:30:24;98824.22;;;33.75;26.68
71151;BME280;59071;42.138;24.768;2022-09-29T10:33:00;98823.75;;;33.24;27.11
71151;BME280;59071;42.138;24.768;2022-09-29T10:35:35;98814.16;;;32.50;28.06
71151;BME280;59071;42.138;24.768;2022-09-29T10:38:05;98807.69;;;32.09;28.36
71151;BME280;59071;42.138;24.768;2022-09-29T10:40:31;98808.56;;;32.17;28.51
71151;BME280;59071;42.138;24.768;2022-09-29T10:42:57;98807.25;;;32.33;28.39
71151;BME280;59071;42.138;24.768;2022-09-29T10:45:27;98805.84;;;32.47;28.71
71151;BME280;59071;42.138;24.768;2022-09-29T10:50:26;98795.59;;;32.74;28.00
71151;BME280;59071;42.138;24.768;2022-09-29T10:55:20;98791.91;;;31.83;29.09
71151;BME280;59071;42.138;24.768;2022-09-29T10:57:46;98792.31;;;32.08;28.87
71151;BME280;59071;42.138;24.768;2022-09-29T11:00:31;98785.06;;;31.96;29.81
71151;BME280;59071;42.138;24.768;2022-09-29T11:03:17;98795.06;;;32.08;29.65
71151;BME280;59071;42.138;24.768;2022-09-29T11:08:27;98792.97;;;32.85;27.60
71151;BME280;59071;42.138;24.768;2022-09-29T11:13:33;98777.31;;;32.59;27.86
71151;BME280;59071;42.138;24.768;2022-09-29T11:18:56;98765.47;;;33.26;27.44
71151;BME280;59071;42.138;24.768;2022-09-29T11:26:59;98763.66;;;32.39;28.74
71151;BME280;59071;42.138;24.768;2022-09-29T11:40:35;98764.91;;;31.88;29.12
71151;BME280;59071;42.138;24.768;2022-09-29T11:45:59;98758.94;;;31.36;30.18
71151;BME280;59071;42.138;24.768;2022-09-29T11:48:58;98749.66;;;31.22;30.06
71151;BME280;59071;42.138;24.768;2022-09-29T11:57:09;98749.28;;;33.21;28.28
71151;BME280;59071;42.138;24.768;2022-09-29T11:59:56;98747.81;;;32.02;28.55
71151;BME280;59071;42.138;24.768;2022-09-29T12:17:15;98716.28;;;32.90;27.14
71151;BME280;59071;42.138;24.768;2022-09-29T12:19:44;98722.13;;;33.23;27.30
71151;BME280;59071;42.138;24.768;2022-09-29T12:22:14;98727.53;;;33.60;26.80
71151;BME280;59071;42.138;24.768;2022-09-29T12:24:46;98727.84;;;34.00;25.17
71151;BME280;59071;42.138;24.768;2022-09-29T12:27:20;98732.97;;;33.46;25.45
71151;BME280;59071;42.138;24.768;2022-09-29T12:30:03;98735.47;;;32.80;26.17
71151;BME280;59071;42.138;24.768;2022-09-29T12:32:39;98735.22;;;33.33;26.12
71151;BME280;59071;42.138;24.768;2022-09-29T12:35:36;98731.34;;;33.41;25.43
71151;BME280;59071;42.138;24.768;2022-09-29T12:38:16;98727.03;;;33.99;25.01
71151;BME280;59071;42.138;24.768;2022-09-29T12:43:50;98720.81;;;35.19;24.30
71151;BME280;59071;42.138;24.768;2022-09-29T12:46:24;98728.69;;;35.28;24.05
71151;BME280;59071;42.138;24.768;2022-09-29T12:48:57;98729.44;;;35.10;24.07
71151;BME280;59071;42.138;24.768;2022-09-29T12:51:33;98726.59;;;33.90;24.78
71151;BME280;59071;42.138;24.768;2022-09-29T12:54:02;98730.03;;;33.28;25.56
71151;BME280;59071;42.138;24.768;2022-09-29T13:13:38;98718.03;;;33.54;25.48
71151;BME280;59071;42.138;24.768;2022-09-29T13:29:51;98715.22;;;33.02;25.88
71151;BME280;59071;42.138;24.768;2022-09-29T13:32:19;98714.97;;;33.15;25.51
71151;BME280;59071;42.138;24.768;2022-09-29T13:34:53;98725.78;;;32.59;26.43
71151;BME280;59071;42.138;24.768;2022-09-29T13:37:21;98721.13;;;32.33;27.43
71151;BME280;59071;42.138;24.768;2022-09-29T13:42:37;98716.97;;;32.46;26.60
71151;BME280;59071;42.138;24.768;2022-09-29T13:47:45;98722.28;;;31.75;27.41
71151;BME280;59071;42.138;24.768;2022-09-29T13:58:28;98715.97;;;31.25;28.09
71151;BME280;59071;42.138;24.768;2022-09-29T14:01:01;98723.28;;;31.63;28.54
71151;BME280;59071;42.138;24.768;2022-09-29T14:03:37;98713.06;;;31.64;28.08
71151;BME280;59071;42.138;24.768;2022-09-29T14:06:15;98715.44;;;31.92;27.46
71151;BME280;59071;42.138;24.768;2022-09-29T14:13:57;98715.69;;;31.83;27.83
71151;BME280;59071;42.138;24.768;2022-09-29T14:16:33;98715.38;;;31.88;27.51
71151;BME280;59071;42.138;24.768;2022-09-29T14:19:09;98716.13;;;31.85;27.35
71151;BME280;59071;42.138;24.768;2022-09-29T14:21:58;98708.22;;;31.53;27.98
71151;BME280;59071;42.138;24.768;2022-09-29T14:30:13;98727.03;;;31.51;28.26
71151;BME280;59071;42.138;24.768;2022-09-29T14:32:56;98726.50;;;31.46;28.09
71151;BME280;59071;42.138;24.768;2022-09-29T14:35:33;98728.34;;;31.38;27.67
71151;BME280;59071;42.138;24.768;2022-09-29T14:38:20;98729.16;;;31.15;27.85
71151;BME280;59071;42.138;24.768;2022-09-29T14:41:28;98728.34;;;31.15;28.15
71151;BME280;59071;42.138;24.768;2022-09-29T14:43:59;98724.22;;;31.05;28.21
71151;BME280;59071;42.138;24.768;2022-09-29T14:49:43;98721.47;;;30.43;29.24
71151;BME280;59071;42.138;24.768;2022-09-29T14:55:26;98724.59;;;30.84;29.34
71151;BME280;59071;42.138;24.768;2022-09-29T15:00:50;98717.63;;;30.87;29.18
71151;BME280;59071;42.138;24.768;2022-09-29T15:03:29;98722.25;;;30.83;28.86
71151;BME280;59071;42.138;24.768;2022-09-29T15:06:24;98718.41;;;30.87;29.12
71151;BME280;59071;42.138;24.768;2022-09-29T15:11:28;98723.44;;;30.62;29.01
71151;BME280;59071;42.138;24.768;2022-09-29T15:13:55;98723.63;;;30.73;29.11
71151;BME280;59071;42.138;24.768;2022-09-29T15:22:10;98729.81;;;30.31;29.35
71151;BME280;59071;42.138;24.768;2022-09-29T15:27:28;98722.06;;;29.97;29.74
71151;BME280;59071;42.138;24.768;2022-09-29T15:29:55;98727.44;;;29.94;30.37
71151;BME280;59071;42.138;24.768;2022-09-29T15:32:23;98729.00;;;30.11;29.54
71151;BME280;59071;42.138;24.768;2022-09-29T15:34:50;98740.03;;;30.50;29.45
71151;BME280;59071;42.138;24.768;2022-09-29T15:37:16;98740.25;;;30.41;29.89
71151;BME280;59071;42.138;24.768;2022-09-29T15:39:51;98738.03;;;30.31;30.33
71151;BME280;59071;42.138;24.768;2022-09-29T15:42:21;98742.56;;;30.23;30.75
71151;BME280;59071;42.138;24.768;2022-09-29T15:45:01;98743.75;;;30.22;30.95
71151;BME280;59071;42.138;24.768;2022-09-29T15:47:36;98745.03;;;30.09;31.37
71151;BME280;59071;42.138;24.768;2022-09-29T15:50:23;98747.69;;;30.05;31.64
71151;BME280;59071;42.138;24.768;2022-09-29T15:52:49;98748.03;;;30.04;31.25
71151;BME280;59071;42.138;24.768;2022-09-29T15:55:24;98760.88;;;29.99;31.67
71151;BME280;59071;42.138;24.768;2022-09-29T15:57:50;98759.50;;;29.90;31.84
71151;BME280;59071;42.138;24.768;2022-09-29T16:05:39;98767.38;;;29.75;32.64
71151;BME280;59071;42.138;24.768;2022-09-29T16:11:03;98769.13;;;29.52;32.87
71151;BME280;59071;42.138;24.768;2022-09-29T16:13:31;98769.63;;;29.41;33.41
71151;BME280;59071;42.138;24.768;2022-09-29T16:16:06;98775.75;;;29.35;33.72
71151;BME280;59071;42.138;24.768;2022-09-29T16:18:52;98785.00;;;29.14;34.50
71151;BME280;59071;42.138;24.768;2022-09-29T16:21:23;98772.72;;;28.96;33.88
71151;BME280;59071;42.138;24.768;2022-09-29T16:26:50;98771.16;;;28.95;34.16
71151;BME280;59071;42.138;24.768;2022-09-29T16:29:43;98780.31;;;28.87;32.84
71151;BME280;59071;42.138;24.768;2022-09-29T16:35:35;98791.47;;;28.53;35.19
71151;BME280;59071;42.138;24.768;2022-09-29T16:40:42;98795.28;;;28.12;35.71
71151;BME280;59071;42.138;24.768;2022-09-29T16:43:27;98807.25;;;28.07;35.69
71151;BME280;59071;42.138;24.768;2022-09-29T16:45:56;98808.53;;;27.97;36.14
71151;BME280;59071;42.138;24.768;2022-09-29T16:48:24;98813.94;;;27.85;36.09